createdAt,value
2023-04-03T00:01:26.004Z,80.13
2023-04-03T00:11:32.321Z,80.28
2023-04-03T00:21:56.747Z,80.21
2023-04-03T00:32:20.803Z,80.81
2023-04-03T00:42:37.202Z,81.17
2023-04-03T00:52:42.284Z,81.60
2023-04-03T01:03:26.535Z,82.12
2023-04-03T01:14:16.317Z,82.82
2023-04-03T01:24:55.363Z,82.45
2023-04-03T01:35:29.491Z,82.36
2023-04-03T01:45:43.777Z,83.03
2023-04-03T01:56:46.574Z,83.10
2023-04-03T02:06:55.007Z,83.07
2023-04-03T02:17:17.311Z,83.20
2023-04-03T02:27:56.936Z,83.48
2023-04-03T02:38:42.226Z,83.62
2023-04-03T02:48:58.479Z,83.85
2023-04-03T03:00:09.645Z,83.97
2023-04-03T03:10:32.606Z,83.58
2023-04-03T03:21:19.661Z,83.78
2023-04-03T03:31:37.925Z,83.55
2023-04-03T03:42:06.552Z,84.10
2023-04-03T03:53:06.723Z,83.76
2023-04-03T04:04:15.398Z,83.53
2023-04-03T04:15:25.775Z,83.64
2023-04-03T04:26:11.459Z,85.17
2023-04-03T04:37:13.338Z,85.09
2023-04-03T04:47:50.637Z,83.88
2023-04-03T04:58:28.842Z,83.65
2023-04-03T05:09:27.873Z,83.26
2023-04-03T05:20:24.975Z,83.05
2023-04-03T05:31:30.570Z,83.30
2023-04-03T05:42:24.103Z,82.86
2023-04-03T05:52:54.271Z,82.58
2023-04-03T06:03:44.771Z,81.59
2023-04-03T06:14:30.126Z,81.44
2023-04-03T06:26:03.867Z,81.64
2023-04-03T06:36:42.471Z,81.63
2023-04-03T06:47:30.261Z,81.21
2023-04-03T06:58:07.925Z,80.56
2023-04-03T07:08:31.081Z,79.69
2023-04-03T07:19:22.130Z,79.20
2023-04-03T07:29:41.944Z,80.39
2023-04-03T07:40:48.158Z,78.38
2023-04-03T07:51:36.033Z,76.02
2023-04-03T08:02:58.847Z,74.70
2023-04-03T08:13:27.986Z,72.67
2023-04-03T08:24:29.428Z,73.15
2023-04-03T08:35:40.501Z,71.92
2023-04-03T08:46:53.094Z,72.38
2023-04-03T08:58:10.090Z,70.60
2023-04-03T09:09:47.830Z,69.79
2023-04-03T09:20:28.615Z,70.25
2023-04-03T09:31:00.493Z,71.47
2023-04-03T09:41:42.565Z,71.69
2023-04-03T09:53:00.390Z,71.46
2023-04-03T10:04:47.233Z,72.26
2023-04-03T10:15:43.257Z,71.11
2023-04-03T10:27:20.967Z,70.67
2023-04-03T10:38:33.313Z,70.33
2023-04-03T10:49:59.735Z,70.42
2023-04-03T11:01:35.462Z,69.50
2023-04-03T11:12:30.792Z,70.27
2023-04-03T11:23:50.923Z,70.35
2023-04-03T11:34:29.198Z,70.10
2023-04-03T11:45:36.554Z,70.30
2023-04-03T11:56:04.749Z,70.11
2023-04-03T12:06:52.713Z,70.02
2023-04-03T12:18:01.976Z,68.95
2023-04-03T12:28:25.128Z,69.04
2023-04-03T12:39:56.002Z,67.03
2023-04-03T12:51:18.003Z,66.73
2023-04-03T13:02:25.794Z,65.89
2023-04-03T13:13:36.416Z,66.06
2023-04-03T13:24:17.457Z,64.82
2023-04-03T13:35:45.339Z,64.10
2023-04-03T13:46:53.093Z,61.69
2023-04-03T13:57:25.761Z,60.56
2023-04-03T14:08:08.399Z,60.19
2023-04-03T14:18:42.218Z,61.49
2023-04-03T14:28:56.920Z,61.06
2023-04-03T14:39:37.163Z,60.51
2023-04-03T14:50:24.277Z,59.71
2023-04-03T15:01:14.025Z,57.12
2023-04-03T15:11:48.629Z,57.89
2023-04-03T15:22:40.202Z,57.89
2023-04-03T15:33:41.884Z,57.76
2023-04-03T15:44:16.588Z,58.58
2023-04-03T15:54:56.824Z,60.53
2023-04-03T16:06:22.920Z,62.54
2023-04-03T16:17:36.286Z,63.92
2023-04-03T16:28:55.813Z,65.36
2023-04-03T16:39:24.093Z,67.03
2023-04-03T16:49:35.283Z,67.48
2023-04-03T16:59:39.020Z,68.48
2023-04-03T17:09:42.939Z,69.41
2023-04-03T17:19:46.298Z,70.38
2023-04-03T17:29:49.733Z,71.09
2023-04-03T17:39:52.805Z,71.33
2023-04-03T17:49:56.610Z,72.33
2023-04-03T17:59:59.693Z,72.18
2023-04-03T18:10:05.299Z,72.90
2023-04-03T18:20:10.347Z,73.52
2023-04-03T18:30:17.023Z,73.62
2023-04-03T18:40:20.761Z,73.56
2023-04-03T18:50:23.827Z,73.54
2023-04-03T19:00:27.664Z,73.70
2023-04-03T19:10:30.936Z,73.94
2023-04-03T19:20:34.388Z,74.91
2023-04-03T19:30:38.601Z,75.13
2023-04-03T19:40:44.044Z,75.40
2023-04-03T19:50:47.444Z,75.95
2023-04-03T20:00:51.255Z,76.35
2023-04-03T20:10:55.310Z,76.18
2023-04-03T20:21:02.507Z,76.48
2023-04-03T20:31:08.045Z,76.61
2023-04-03T20:41:12.600Z,76.23
2023-04-03T20:51:18.689Z,76.73
2023-04-03T21:01:24.157Z,76.90
2023-04-03T21:12:05.793Z,76.77
2023-04-03T21:22:09.361Z,76.55
2023-04-03T21:32:14.067Z,77.28
2023-04-03T21:42:17.825Z,77.01
2023-04-03T21:52:21.263Z,77.32
2023-04-03T22:02:27.487Z,77.30
2023-04-03T22:12:34.876Z,76.65
2023-04-03T22:22:38.393Z,76.84
2023-04-03T22:32:42.259Z,76.79
2023-04-03T22:42:49.068Z,76.77
2023-04-03T22:52:52.135Z,76.36
2023-04-03T23:02:55.230Z,76.41
2023-04-03T23:12:58.258Z,77.16
2023-04-03T23:23:04.248Z,77.23
2023-04-03T23:33:07.310Z,77.68
2023-04-03T23:43:11.124Z,76.98
2023-04-03T23:53:14.110Z,77.31
